sensor_id;sensor_type;location;lat;lon;timestamp;P1;durP1;ratioP1;P2;durP2;ratioP2
3993;SDS011;2011;48.238;13.948;2024-03-23T00:53:30;27.20;;;18.90;;
3993;SDS011;2011;48.238;13.948;2024-03-23T00:55:57;31.40;;;19.00;;
3993;SDS011;2011;48.238;13.948;2024-03-23T00:58:24;29.73;;;20.33;;
3993;SDS011;2011;48.238;13.948;2024-03-23T01:00:50;30.97;;;20.50;;
3993;SDS011;2011;48.238;13.948;2024-03-23T01:03:17;27.40;;;18.17;;
3993;SDS011;2011;48.238;13.948;2024-03-23T01:05:45;32.70;;;20.33;;
3993;SDS011;2011;48.238;13.948;2024-03-23T01:08:14;33.50;;;20.03;;
3993;SDS011;2011;48.238;13.948;2024-03-23T01:13:30;31.50;;;19.50;;
3993;SDS011;2011;48.238;13.948;2024-03-23T01:15:56;28.33;;;17.67;;
3993;SDS011;2011;48.238;13.948;2024-03-23T01:18:25;26.87;;;18.20;;
3993;SDS011;2011;48.238;13.948;2024-03-23T01:20:54;26.20;;;17.40;;
3993;SDS011;2011;48.238;13.948;2024-03-23T01:23:25;29.53;;;18.40;;
3993;SDS011;2011;48.238;13.948;2024-03-23T01:25:51;29.80;;;19.80;;
3993;SDS011;2011;48.238;13.948;2024-03-23T01:28:27;38.03;;;21.00;;
3993;SDS011;2011;48.238;13.948;2024-03-23T01:30:55;30.67;;;19.50;;
3993;SDS011;2011;48.238;13.948;2024-03-23T01:33:24;30.30;;;18.90;;
3993;SDS011;2011;48.238;13.948;2024-03-23T01:35:51;33.10;;;20.07;;
3993;SDS011;2011;48.238;13.948;2024-03-23T01:38:18;28.00;;;19.47;;
3993;SDS011;2011;48.238;13.948;2024-03-23T01:40:44;34.33;;;19.90;;
3993;SDS011;2011;48.238;13.948;2024-03-23T01:43:16;32.30;;;19.57;;
3993;SDS011;2011;48.238;13.948;2024-03-23T01:45:43;34.53;;;20.40;;
3993;SDS011;2011;48.238;13.948;2024-03-23T01:48:11;42.87;;;21.50;;
3993;SDS011;2011;48.238;13.948;2024-03-23T01:50:39;28.67;;;19.20;;
3993;SDS011;2011;48.238;13.948;2024-03-23T01:53:09;32.10;;;20.70;;
3993;SDS011;2011;48.238;13.948;2024-03-23T01:55:36;30.07;;;19.53;;
3993;SDS011;2011;48.238;13.948;2024-03-23T01:58:04;29.40;;;19.97;;
3993;SDS011;2011;48.238;13.948;2024-03-23T02:00:30;26.70;;;18.40;;
3993;SDS011;2011;48.238;13.948;2024-03-23T02:03:00;30.17;;;17.70;;
3993;SDS011;2011;48.238;13.948;2024-03-23T02:05:26;35.70;;;17.47;;
3993;SDS011;2011;48.238;13.948;2024-03-23T02:07:53;26.03;;;16.60;;
3993;SDS011;2011;48.238;13.948;2024-03-23T02:10:20;30.70;;;18.60;;
3993;SDS011;2011;48.238;13.948;2024-03-23T02:12:47;31.93;;;19.40;;
3993;SDS011;2011;48.238;13.948;2024-03-23T02:15:13;26.00;;;17.27;;
3993;SDS011;2011;48.238;13.948;2024-03-23T02:17:40;27.70;;;17.43;;
3993;SDS011;2011;48.238;13.948;2024-03-23T02:20:07;37.07;;;17.37;;
3993;SDS011;2011;48.238;13.948;2024-03-23T02:22:36;21.83;;;14.90;;
3993;SDS011;2011;48.238;13.948;2024-03-23T02:25:04;27.80;;;15.80;;
3993;SDS011;2011;48.238;13.948;2024-03-23T02:27:31;25.70;;;16.90;;
3993;SDS011;2011;48.238;13.948;2024-03-23T02:29:58;23.20;;;15.50;;
3993;SDS011;2011;48.238;13.948;2024-03-23T02:32:25;24.43;;;15.70;;
3993;SDS011;2011;48.238;13.948;2024-03-23T02:34:51;26.40;;;17.70;;
3993;SDS011;2011;48.238;13.948;2024-03-23T02:37:18;25.30;;;15.90;;
3993;SDS011;2011;48.238;13.948;2024-03-23T02:39:44;24.47;;;15.60;;
3993;SDS011;2011;48.238;13.948;2024-03-23T02:42:12;30.43;;;17.47;;
3993;SDS011;2011;48.238;13.948;2024-03-23T02:44:38;24.17;;;13.93;;
3993;SDS011;2011;48.238;13.948;2024-03-23T02:47:06;21.70;;;14.60;;
3993;SDS011;2011;48.238;13.948;2024-03-23T02:49:32;20.80;;;14.87;;
3993;SDS011;2011;48.238;13.948;2024-03-23T02:51:59;21.20;;;14.60;;
3993;SDS011;2011;48.238;13.948;2024-03-23T02:54:25;27.33;;;16.20;;
3993;SDS011;2011;48.238;13.948;2024-03-23T02:56:52;21.60;;;14.17;;
3993;SDS011;2011;48.238;13.948;2024-03-23T02:59:19;21.73;;;14.13;;
3993;SDS011;2011;48.238;13.948;2024-03-23T03:01:46;24.00;;;15.73;;
3993;SDS011;2011;48.238;13.948;2024-03-23T03:04:12;24.07;;;16.43;;
3993;SDS011;2011;48.238;13.948;2024-03-23T03:06:39;29.30;;;16.33;;
3993;SDS011;2011;48.238;13.948;2024-03-23T03:09:06;29.33;;;16.50;;
3993;SDS011;2011;48.238;13.948;2024-03-23T03:11:33;27.90;;;17.80;;
3993;SDS011;2011;48.238;13.948;2024-03-23T03:13:59;29.00;;;18.53;;
3993;SDS011;2011;48.238;13.948;2024-03-23T03:16:28;34.93;;;18.30;;
3993;SDS011;2011;48.238;13.948;2024-03-23T03:18:54;27.27;;;16.27;;
3993;SDS011;2011;48.238;13.948;2024-03-23T03:21:21;29.47;;;18.60;;
3993;SDS011;2011;48.238;13.948;2024-03-23T03:23:47;26.97;;;17.83;;
3993;SDS011;2011;48.238;13.948;2024-03-23T03:26:15;31.00;;;17.33;;
3993;SDS011;2011;48.238;13.948;2024-03-23T03:28:41;28.37;;;19.07;;
3993;SDS011;2011;48.238;13.948;2024-03-23T03:31:09;23.23;;;16.80;;
3993;SDS011;2011;48.238;13.948;2024-03-23T03:33:36;29.43;;;18.80;;
3993;SDS011;2011;48.238;13.948;2024-03-23T03:36:03;29.57;;;15.30;;
3993;SDS011;2011;48.238;13.948;2024-03-23T03:38:30;30.90;;;18.53;;
3993;SDS011;2011;48.238;13.948;2024-03-23T03:40:57;35.70;;;19.30;;
3993;SDS011;2011;48.238;13.948;2024-03-23T03:43:24;28.50;;;17.43;;
3993;SDS011;2011;48.238;13.948;2024-03-23T03:45:51;33.13;;;19.70;;
3993;SDS011;2011;48.238;13.948;2024-03-23T03:48:18;30.07;;;18.60;;
3993;SDS011;2011;48.238;13.948;2024-03-23T03:50:46;31.50;;;20.20;;
3993;SDS011;2011;48.238;13.948;2024-03-23T03:53:12;28.70;;;17.37;;
3993;SDS011;2011;48.238;13.948;2024-03-23T03:55:39;29.57;;;17.97;;
3993;SDS011;2011;48.238;13.948;2024-03-23T03:58:05;24.77;;;17.20;;
3993;SDS011;2011;48.238;13.948;2024-03-23T04:00:32;33.17;;;17.67;;
3993;SDS011;2011;48.238;13.948;2024-03-23T04:02:58;29.03;;;18.60;;
3993;SDS011;2011;48.238;13.948;2024-03-23T04:05:25;26.20;;;15.67;;
3993;SDS011;2011;48.238;13.948;2024-03-23T04:07:53;28.20;;;17.90;;
3993;SDS011;2011;48.238;13.948;2024-03-23T04:10:20;32.37;;;20.20;;
3993;SDS011;2011;48.238;13.948;2024-03-23T04:12:46;35.67;;;22.23;;
3993;SDS011;2011;48.238;13.948;2024-03-23T04:15:14;32.63;;;19.00;;
3993;SDS011;2011;48.238;13.948;2024-03-23T04:17:40;30.43;;;18.70;;
3993;SDS011;2011;48.238;13.948;2024-03-23T04:20:08;35.47;;;20.80;;
3993;SDS011;2011;48.238;13.948;2024-03-23T04:22:36;34.67;;;18.90;;
3993;SDS011;2011;48.238;13.948;2024-03-23T04:25:05;30.47;;;18.77;;
3993;SDS011;2011;48.238;13.948;2024-03-23T04:27:32;29.60;;;18.40;;
3993;SDS011;2011;48.238;13.948;2024-03-23T04:29:59;33.20;;;19.00;;
3993;SDS011;2011;48.238;13.948;2024-03-23T04:32:26;28.80;;;16.50;;
3993;SDS011;2011;48.238;13.948;2024-03-23T04:34:53;33.40;;;17.70;;
3993;SDS011;2011;48.238;13.948;2024-03-23T04:37:20;40.03;;;22.80;;
3993;SDS011;2011;48.238;13.948;2024-03-23T04:39:46;35.20;;;21.77;;
3993;SDS011;2011;48.238;13.948;2024-03-23T04:42:15;35.63;;;20.90;;
3993;SDS011;2011;48.238;13.948;2024-03-23T04:44:42;32.07;;;20.03;;
3993;SDS011;2011;48.238;13.948;2024-03-23T04:47:10;28.70;;;17.60;;
3993;SDS011;2011;48.238;13.948;2024-03-23T04:49:37;32.33;;;18.93;;
3993;SDS011;2011;48.238;13.948;2024-03-23T04:52:04;73.20;;;21.40;;
3993;SDS011;2011;48.238;13.948;2024-03-23T04:54:31;44.47;;;20.07;;
3993;SDS011;2011;48.238;13.948;2024-03-23T04:56:58;41.47;;;22.97;;
3993;SDS011;2011;48.238;13.948;2024-03-23T04:59:27;54.63;;;26.10;;
3993;SDS011;2011;48.238;13.948;2024-03-23T05:01:53;49.60;;;26.90;;
3993;SDS011;2011;48.238;13.948;2024-03-23T05:04:20;35.90;;;22.70;;
3993;SDS011;2011;48.238;13.948;2024-03-23T05:06:46;39.90;;;22.07;;
3993;SDS011;2011;48.238;13.948;2024-03-23T05:09:13;53.37;;;29.07;;
3993;SDS011;2011;48.238;13.948;2024-03-23T05:11:39;38.93;;;24.00;;
3993;SDS011;2011;48.238;13.948;2024-03-23T05:14:07;32.97;;;19.93;;
3993;SDS011;2011;48.238;13.948;2024-03-23T05:16:34;39.00;;;23.20;;
3993;SDS011;2011;48.238;13.948;2024-03-23T05:19:01;38.43;;;24.67;;
3993;SDS011;2011;48.238;13.948;2024-03-23T05:21:27;36.20;;;22.20;;
3993;SDS011;2011;48.238;13.948;2024-03-23T05:23:55;31.33;;;20.70;;
3993;SDS011;2011;48.238;13.948;2024-03-23T05:26:21;31.27;;;21.70;;
3993;SDS011;2011;48.238;13.948;2024-03-23T05:28:48;33.30;;;22.70;;
3993;SDS011;2011;48.238;13.948;2024-03-23T05:31:22;48.43;;;26.30;;
3993;SDS011;2011;48.238;13.948;2024-03-23T05:33:50;43.17;;;23.27;;
3993;SDS011;2011;48.238;13.948;2024-03-23T05:36:17;32.87;;;21.10;;
3993;SDS011;2011;48.238;13.948;2024-03-23T05:38:43;31.83;;;20.53;;
3993;SDS011;2011;48.238;13.948;2024-03-23T05:41:10;38.30;;;23.20;;
3993;SDS011;2011;48.238;13.948;2024-03-23T05:43:37;42.57;;;22.77;;
3993;SDS011;2011;48.238;13.948;2024-03-23T05:46:03;33.40;;;20.33;;
3993;SDS011;2011;48.238;13.948;2024-03-23T05:48:30;29.33;;;20.13;;
3993;SDS011;2011;48.238;13.948;2024-03-23T05:50:58;50.23;;;23.50;;
3993;SDS011;2011;48.238;13.948;2024-03-23T05:53:25;30.80;;;19.70;;
3993;SDS011;2011;48.238;13.948;2024-03-23T05:55:51;45.77;;;22.93;;
3993;SDS011;2011;48.238;13.948;2024-03-23T05:58:26;41.43;;;20.53;;
3993;SDS011;2011;48.238;13.948;2024-03-23T06:00:56;33.00;;;21.20;;
3993;SDS011;2011;48.238;13.948;2024-03-23T06:03:23;40.00;;;18.60;;
3993;SDS011;2011;48.238;13.948;2024-03-23T06:05:49;27.40;;;18.80;;
3993;SDS011;2011;48.238;13.948;2024-03-23T06:08:19;32.60;;;21.20;;
3993;SDS011;2011;48.238;13.948;2024-03-23T06:10:45;54.40;;;20.00;;
3993;SDS011;2011;48.238;13.948;2024-03-23T06:13:12;27.77;;;17.77;;
3993;SDS011;2011;48.238;13.948;2024-03-23T06:15:38;30.17;;;20.63;;
3993;SDS011;2011;48.238;13.948;2024-03-23T06:18:05;32.03;;;18.97;;
3993;SDS011;2011;48.238;13.948;2024-03-23T06:20:33;29.10;;;20.13;;
3993;SDS011;2011;48.238;13.948;2024-03-23T06:23:00;29.70;;;19.93;;
3993;SDS011;2011;48.238;13.948;2024-03-23T06:25:27;28.90;;;19.63;;
3993;SDS011;2011;48.238;13.948;2024-03-23T06:27:54;27.83;;;18.70;;
3993;SDS011;2011;48.238;13.948;2024-03-23T06:30:21;40.50;;;19.23;;
3993;SDS011;2011;48.238;13.948;2024-03-23T06:32:48;28.13;;;17.87;;
3993;SDS011;2011;48.238;13.948;2024-03-23T06:35:14;29.93;;;17.77;;
3993;SDS011;2011;48.238;13.948;2024-03-23T06:37:41;26.60;;;18.10;;
3993;SDS011;2011;48.238;13.948;2024-03-23T06:40:07;28.77;;;19.30;;
3993;SDS011;2011;48.238;13.948;2024-03-23T06:42:37;26.90;;;16.77;;
3993;SDS011;2011;48.238;13.948;2024-03-23T06:45:03;25.40;;;18.20;;
3993;SDS011;2011;48.238;13.948;2024-03-23T06:47:30;25.57;;;18.40;;
3993;SDS011;2011;48.238;13.948;2024-03-23T06:49:56;24.77;;;16.00;;
3993;SDS011;2011;48.238;13.948;2024-03-23T06:52:24;35.03;;;18.10;;
3993;SDS011;2011;48.238;13.948;2024-03-23T06:54:50;23.17;;;16.40;;
3993;SDS011;2011;48.238;13.948;2024-03-23T06:57:17;25.27;;;16.30;;
3993;SDS011;2011;48.238;13.948;2024-03-23T06:59:44;26.67;;;16.37;;
3993;SDS011;2011;48.238;13.948;2024-03-23T07:02:11;23.77;;;14.23;;
3993;SDS011;2011;48.238;13.948;2024-03-23T07:04:37;22.70;;;14.93;;
3993;SDS011;2011;48.238;13.948;2024-03-23T07:07:05;23.73;;;15.60;;
3993;SDS011;2011;48.238;13.948;2024-03-23T07:09:31;20.77;;;14.70;;
3993;SDS011;2011;48.238;13.948;2024-03-23T07:11:58;20.33;;;15.17;;
3993;SDS011;2011;48.238;13.948;2024-03-23T07:14:25;24.43;;;14.30;;
3993;SDS011;2011;48.238;13.948;2024-03-23T07:16:53;26.37;;;14.27;;
3993;SDS011;2011;48.238;13.948;2024-03-23T07:19:19;20.07;;;14.00;;
3993;SDS011;2011;48.238;13.948;2024-03-23T07:21:46;19.20;;;13.13;;
3993;SDS011;2011;48.238;13.948;2024-03-23T07:24:13;20.23;;;12.77;;
3993;SDS011;2011;48.238;13.948;2024-03-23T07:26:40;19.20;;;13.47;;
3993;SDS011;2011;48.238;13.948;2024-03-23T07:29:06;17.30;;;11.17;;
3993;SDS011;2011;48.238;13.948;2024-03-23T07:31:33;18.57;;;12.00;;
3993;SDS011;2011;48.238;13.948;2024-03-23T07:34:01;15.83;;;10.87;;
3993;SDS011;2011;48.238;13.948;2024-03-23T07:36:28;17.10;;;11.30;;
3993;SDS011;2011;48.238;13.948;2024-03-23T07:38:54;16.80;;;12.40;;
3993;SDS011;2011;48.238;13.948;2024-03-23T07:41:21;22.33;;;11.93;;
3993;SDS011;2011;48.238;13.948;2024-03-23T07:43:47;16.27;;;9.97;;
3993;SDS011;2011;48.238;13.948;2024-03-23T07:46:14;19.27;;;9.80;;
3993;SDS011;2011;48.238;13.948;2024-03-23T07:48:41;17.30;;;9.03;;
3993;SDS011;2011;48.238;13.948;2024-03-23T07:51:10;20.73;;;9.10;;
3993;SDS011;2011;48.238;13.948;2024-03-23T07:53:38;16.90;;;11.20;;
3993;SDS011;2011;48.238;13.948;2024-03-23T07:56:06;19.33;;;12.10;;
3993;SDS011;2011;48.238;13.948;2024-03-23T07:58:33;17.70;;;11.20;;
3993;SDS011;2011;48.238;13.948;2024-03-23T08:01:04;16.53;;;12.23;;
3993;SDS011;2011;48.238;13.948;2024-03-23T08:03:33;17.10;;;11.00;;
3993;SDS011;2011;48.238;13.948;2024-03-23T08:06:06;17.60;;;11.47;;
3993;SDS011;2011;48.238;13.948;2024-03-23T08:08:34;23.13;;;11.80;;
3993;SDS011;2011;48.238;13.948;2024-03-23T08:11:00;15.60;;;9.70;;
3993;SDS011;2011;48.238;13.948;2024-03-23T08:13:26;13.23;;;8.90;;
3993;SDS011;2011;48.238;13.948;2024-03-23T08:15:55;17.77;;;9.40;;
3993;SDS011;2011;48.238;13.948;2024-03-23T08:18:22;14.80;;;9.13;;
3993;SDS011;2011;48.238;13.948;2024-03-23T08:20:55;13.53;;;8.47;;
3993;SDS011;2011;48.238;13.948;2024-03-23T08:23:21;12.90;;;8.77;;
3993;SDS011;2011;48.238;13.948;2024-03-23T08:25:49;12.73;;;8.43;;
3993;SDS011;2011;48.238;13.948;2024-03-23T08:28:15;15.77;;;8.97;;
3993;SDS011;2011;48.238;13.948;2024-03-23T08:30:42;12.23;;;8.67;;
3993;SDS011;2011;48.238;13.948;2024-03-23T08:33:08;13.17;;;7.90;;
3993;SDS011;2011;48.238;13.948;2024-03-23T08:35:35;14.67;;;7.87;;
3993;SDS011;2011;48.238;13.948;2024-03-23T08:38:01;18.63;;;8.07;;
3993;SDS011;2011;48.238;13.948;2024-03-23T08:40:28;11.13;;;6.50;;
3993;SDS011;2011;48.238;13.948;2024-03-23T08:42:55;12.83;;;6.27;;
3993;SDS011;2011;48.238;13.948;2024-03-23T08:45:22;8.50;;;5.90;;
3993;SDS011;2011;48.238;13.948;2024-03-23T08:47:49;8.90;;;6.60;;
3993;SDS011;2011;48.238;13.948;2024-03-23T08:50:16;8.90;;;5.40;;
3993;SDS011;2011;48.238;13.948;2024-03-23T08:52:42;10.27;;;6.00;;
3993;SDS011;2011;48.238;13.948;2024-03-23T08:55:09;12.37;;;6.30;;
3993;SDS011;2011;48.238;13.948;2024-03-23T08:57:35;9.90;;;6.30;;
3993;SDS011;2011;48.238;13.948;2024-03-23T09:00:04;11.53;;;6.53;;
3993;SDS011;2011;48.238;13.948;2024-03-23T09:02:31;9.83;;;6.07;;
3993;SDS011;2011;48.238;13.948;2024-03-23T09:04:58;13.10;;;6.80;;
3993;SDS011;2011;48.238;13.948;2024-03-23T09:07:29;9.00;;;5.03;;
3993;SDS011;2011;48.238;13.948;2024-03-23T09:09:56;12.60;;;5.23;;
3993;SDS011;2011;48.238;13.948;2024-03-23T09:12:22;8.80;;;5.40;;
3993;SDS011;2011;48.238;13.948;2024-03-23T09:14:49;10.40;;;5.70;;
3993;SDS011;2011;48.238;13.948;2024-03-23T09:17:17;9.57;;;5.90;;
3993;SDS011;2011;48.238;13.948;2024-03-23T09:19:44;9.17;;;5.60;;
3993;SDS011;2011;48.238;13.948;2024-03-23T09:22:11;10.50;;;5.13;;
3993;SDS011;2011;48.238;13.948;2024-03-23T09:24:38;9.50;;;5.93;;
3993;SDS011;2011;48.238;13.948;2024-03-23T09:27:04;8.70;;;5.93;;
3993;SDS011;2011;48.238;13.948;2024-03-23T09:29:31;14.70;;;5.77;;
3993;SDS011;2011;48.238;13.948;2024-03-23T09:31:57;10.90;;;5.83;;
3993;SDS011;2011;48.238;13.948;2024-03-23T09:34:26;12.13;;;6.00;;
3993;SDS011;2011;48.238;13.948;2024-03-23T09:36:52;12.00;;;7.20;;
3993;SDS011;2011;48.238;13.948;2024-03-23T09:39:19;11.53;;;6.83;;
3993;SDS011;2011;48.238;13.948;2024-03-23T09:41:45;12.17;;;6.40;;
3993;SDS011;2011;48.238;13.948;2024-03-23T09:44:12;12.40;;;5.67;;
3993;SDS011;2011;48.238;13.948;2024-03-23T09:46:38;9.10;;;6.07;;
3993;SDS011;2011;48.238;13.948;2024-03-23T09:49:06;13.17;;;5.27;;
3993;SDS011;2011;48.238;13.948;2024-03-23T09:51:36;11.33;;;3.07;;
3993;SDS011;2011;48.238;13.948;2024-03-23T09:54:03;5.97;;;2.20;;
3993;SDS011;2011;48.238;13.948;2024-03-23T09:56:29;5.70;;;2.20;;
3993;SDS011;2011;48.238;13.948;2024-03-23T09:59:02;7.10;;;2.20;;
3993;SDS011;2011;48.238;13.948;2024-03-23T10:01:29;9.77;;;2.17;;
3993;SDS011;2011;48.238;13.948;2024-03-23T10:03:56;5.10;;;1.50;;
3993;SDS011;2011;48.238;13.948;2024-03-23T10:06:22;6.40;;;1.67;;
3993;SDS011;2011;48.238;13.948;2024-03-23T10:08:52;6.97;;;2.27;;
3993;SDS011;2011;48.238;13.948;2024-03-23T10:11:20;5.13;;;1.70;;
3993;SDS011;2011;48.238;13.948;2024-03-23T10:13:47;5.57;;;2.30;;
3993;SDS011;2011;48.238;13.948;2024-03-23T10:16:20;10.60;;;2.73;;
3993;SDS011;2011;48.238;13.948;2024-03-23T10:18:48;4.47;;;2.10;;
3993;SDS011;2011;48.238;13.948;2024-03-23T10:21:15;8.17;;;3.10;;
3993;SDS011;2011;48.238;13.948;2024-03-23T10:23:43;3.80;;;2.00;;
3993;SDS011;2011;48.238;13.948;2024-03-23T10:26:14;4.40;;;2.10;;
3993;SDS011;2011;48.238;13.948;2024-03-23T10:28:53;5.10;;;3.00;;
3993;SDS011;2011;48.238;13.948;2024-03-23T10:31:22;4.17;;;2.10;;
3993;SDS011;2011;48.238;13.948;2024-03-23T10:33:49;7.43;;;2.53;;
3993;SDS011;2011;48.238;13.948;2024-03-23T10:36:15;6.80;;;2.87;;
3993;SDS011;2011;48.238;13.948;2024-03-23T10:38:44;7.20;;;2.67;;
3993;SDS011;2011;48.238;13.948;2024-03-23T10:41:10;5.07;;;2.37;;
3993;SDS011;2011;48.238;13.948;2024-03-23T10:43:38;4.77;;;1.90;;
3993;SDS011;2011;48.238;13.948;2024-03-23T10:46:05;3.20;;;1.70;;
3993;SDS011;2011;48.238;13.948;2024-03-23T10:48:34;2.87;;;1.40;;
3993;SDS011;2011;48.238;13.948;2024-03-23T10:51:00;10.03;;;1.60;;
3993;SDS011;2011;48.238;13.948;2024-03-23T10:53:28;2.90;;;1.60;;
3993;SDS011;2011;48.238;13.948;2024-03-23T10:55:54;3.20;;;1.50;;
3993;SDS011;2011;48.238;13.948;2024-03-23T10:58:23;2.80;;;1.60;;
3993;SDS011;2011;48.238;13.948;2024-03-23T11:00:54;3.10;;;1.63;;
3993;SDS011;2011;48.238;13.948;2024-03-23T11:03:31;3.00;;;1.67;;
3993;SDS011;2011;48.238;13.948;2024-03-23T11:05:58;9.00;;;1.67;;
3993;SDS011;2011;48.238;13.948;2024-03-23T11:08:35;6.60;;;1.97;;
3993;SDS011;2011;48.238;13.948;2024-03-23T11:11:11;2.80;;;1.60;;
3993;SDS011;2011;48.238;13.948;2024-03-23T11:13:40;7.37;;;1.83;;
3993;SDS011;2011;48.238;13.948;2024-03-23T11:22:03;3.93;;;1.70;;
3993;SDS011;2011;48.238;13.948;2024-03-23T11:24:30;5.50;;;1.77;;
3993;SDS011;2011;48.238;13.948;2024-03-23T11:26:57;3.67;;;1.80;;
3993;SDS011;2011;48.238;13.948;2024-03-23T11:29:25;2.50;;;1.30;;
3993;SDS011;2011;48.238;13.948;2024-03-23T11:31:54;4.33;;;1.60;;
3993;SDS011;2011;48.238;13.948;2024-03-23T11:34:21;2.80;;;1.50;;
3993;SDS011;2011;48.238;13.948;2024-03-23T11:36:50;4.70;;;1.80;;
3993;SDS011;2011;48.238;13.948;2024-03-23T11:39:27;4.30;;;1.60;;
3993;SDS011;2011;48.238;13.948;2024-03-23T11:41:56;5.67;;;2.10;;
3993;SDS011;2011;48.238;13.948;2024-03-23T11:44:22;3.07;;;1.60;;
3993;SDS011;2011;48.238;13.948;2024-03-23T11:46:52;5.80;;;1.63;;
3993;SDS011;2011;48.238;13.948;2024-03-23T11:49:22;3.87;;;2.00;;
3993;SDS011;2011;48.238;13.948;2024-03-23T11:51:51;3.07;;;1.33;;
3993;SDS011;2011;48.238;13.948;2024-03-23T11:54:20;3.17;;;1.70;;
3993;SDS011;2011;48.238;13.948;2024-03-23T11:56:56;3.93;;;1.60;;
3993;SDS011;2011;48.238;13.948;2024-03-23T11:59:32;3.90;;;1.77;;
3993;SDS011;2011;48.238;13.948;2024-03-23T12:02:00;4.10;;;1.97;;
3993;SDS011;2011;48.238;13.948;2024-03-23T12:04:31;3.10;;;1.60;;
3993;SDS011;2011;48.238;13.948;2024-03-23T12:07:13;4.97;;;2.20;;
3993;SDS011;2011;48.238;13.948;2024-03-23T12:09:43;4.83;;;2.10;;
3993;SDS011;2011;48.238;13.948;2024-03-23T12:12:13;4.33;;;2.20;;
3993;SDS011;2011;48.238;13.948;2024-03-23T12:14:41;3.70;;;2.10;;
3993;SDS011;2011;48.238;13.948;2024-03-23T12:17:10;4.43;;;2.20;;
3993;SDS011;2011;48.238;13.948;2024-03-23T12:19:38;3.10;;;1.70;;
3993;SDS011;2011;48.238;13.948;2024-03-23T12:22:05;2.50;;;1.40;;
3993;SDS011;2011;48.238;13.948;2024-03-23T12:24:34;3.43;;;1.83;;
3993;SDS011;2011;48.238;13.948;2024-03-23T12:27:02;3.50;;;1.67;;
3993;SDS011;2011;48.238;13.948;2024-03-23T12:29:29;5.50;;;2.70;;
3993;SDS011;2011;48.238;13.948;2024-03-23T12:31:59;4.00;;;1.80;;
3993;SDS011;2011;48.238;13.948;2024-03-23T12:34:25;4.30;;;1.90;;
3993;SDS011;2011;48.238;13.948;2024-03-23T12:36:52;20.60;;;3.40;;
3993;SDS011;2011;48.238;13.948;2024-03-23T12:39:18;3.03;;;1.83;;
3993;SDS011;2011;48.238;13.948;2024-03-23T12:41:47;7.03;;;2.17;;
3993;SDS011;2011;48.238;13.948;2024-03-23T12:44:14;4.90;;;2.33;;
3993;SDS011;2011;48.238;13.948;2024-03-23T12:46:41;3.37;;;1.70;;
3993;SDS011;2011;48.238;13.948;2024-03-23T12:49:07;3.10;;;1.40;;
3993;SDS011;2011;48.238;13.948;2024-03-23T12:51:34;12.93;;;2.90;;
3993;SDS011;2011;48.238;13.948;2024-03-23T12:54:00;2.90;;;1.60;;
3993;SDS011;2011;48.238;13.948;2024-03-23T12:56:27;7.63;;;1.73;;
3993;SDS011;2011;48.238;13.948;2024-03-23T12:58:55;3.03;;;1.40;;
3993;SDS011;2011;48.238;13.948;2024-03-23T13:01:22;4.00;;;1.40;;
3993;SDS011;2011;48.238;13.948;2024-03-23T13:03:48;3.90;;;1.27;;
3993;SDS011;2011;48.238;13.948;2024-03-23T13:06:16;1.90;;;1.00;;
3993;SDS011;2011;48.238;13.948;2024-03-23T13:08:44;2.43;;;1.20;;
3993;SDS011;2011;48.238;13.948;2024-03-23T13:11:11;2.33;;;1.13;;
3993;SDS011;2011;48.238;13.948;2024-03-23T13:13:37;2.53;;;1.23;;
3993;SDS011;2011;48.238;13.948;2024-03-23T13:16:05;5.10;;;1.20;;
3993;SDS011;2011;48.238;13.948;2024-03-23T13:18:32;2.23;;;0.93;;
3993;SDS011;2011;48.238;13.948;2024-03-23T13:20:59;2.83;;;1.00;;
3993;SDS011;2011;48.238;13.948;2024-03-23T13:23:25;2.00;;;1.00;;
3993;SDS011;2011;48.238;13.948;2024-03-23T13:25:52;2.77;;;1.20;;
3993;SDS011;2011;48.238;13.948;2024-03-23T13:28:20;2.10;;;1.00;;
3993;SDS011;2011;48.238;13.948;2024-03-23T13:30:50;2.10;;;0.90;;
3993;SDS011;2011;48.238;13.948;2024-03-23T13:33:18;2.67;;;0.90;;
3993;SDS011;2011;48.238;13.948;2024-03-23T13:35:54;2.83;;;1.10;;
3993;SDS011;2011;48.238;13.948;2024-03-23T13:38:21;9.63;;;1.17;;
3993;SDS011;2011;48.238;13.948;2024-03-23T13:40:52;3.63;;;0.90;;
3993;SDS011;2011;48.238;13.948;2024-03-23T13:43:18;2.37;;;1.00;;
3993;SDS011;2011;48.238;13.948;2024-03-23T13:45:46;4.00;;;1.20;;
3993;SDS011;2011;48.238;13.948;2024-03-23T13:48:13;2.77;;;1.10;;
3993;SDS011;2011;48.238;13.948;2024-03-23T13:50:42;2.77;;;0.97;;
3993;SDS011;2011;48.238;13.948;2024-03-23T13:53:08;2.60;;;1.30;;
3993;SDS011;2011;48.238;13.948;2024-03-23T13:55:35;2.30;;;0.90;;
3993;SDS011;2011;48.238;13.948;2024-03-23T13:58:01;3.93;;;1.00;;
3993;SDS011;2011;48.238;13.948;2024-03-23T14:00:29;3.60;;;1.00;;
3993;SDS011;2011;48.238;13.948;2024-03-23T14:02:57;3.90;;;1.30;;
3993;SDS011;2011;48.238;13.948;2024-03-23T14:05:24;3.40;;;1.20;;
3993;SDS011;2011;48.238;13.948;2024-03-23T14:07:52;2.50;;;1.13;;
3993;SDS011;2011;48.238;13.948;2024-03-23T14:10:19;1.93;;;1.00;;
3993;SDS011;2011;48.238;13.948;2024-03-23T14:12:45;4.37;;;1.30;;
3993;SDS011;2011;48.238;13.948;2024-03-23T14:15:12;2.47;;;1.17;;
3993;SDS011;2011;48.238;13.948;2024-03-23T14:17:38;4.10;;;1.40;;
3993;SDS011;2011;48.238;13.948;2024-03-23T14:20:05;2.93;;;1.33;;
3993;SDS011;2011;48.238;13.948;2024-03-23T14:22:34;3.23;;;1.40;;
3993;SDS011;2011;48.238;13.948;2024-03-23T14:25:03;3.17;;;1.50;;
3993;SDS011;2011;48.238;13.948;2024-03-23T14:27:29;2.77;;;1.20;;
3993;SDS011;2011;48.238;13.948;2024-03-23T14:29:57;3.67;;;1.40;;
3993;SDS011;2011;48.238;13.948;2024-03-23T14:32:23;2.50;;;1.20;;
3993;SDS011;2011;48.238;13.948;2024-03-23T14:34:50;2.60;;;1.30;;
3993;SDS011;2011;48.238;13.948;2024-03-23T14:37:17;10.63;;;1.90;;
3993;SDS011;2011;48.238;13.948;2024-03-23T14:39:44;2.13;;;1.20;;
3993;SDS011;2011;48.238;13.948;2024-03-23T14:42:12;10.00;;;1.50;;
3993;SDS011;2011;48.238;13.948;2024-03-23T14:44:39;4.00;;;1.57;;
3993;SDS011;2011;48.238;13.948;2024-03-23T14:47:05;5.00;;;1.40;;
3993;SDS011;2011;48.238;13.948;2024-03-23T14:49:32;4.50;;;1.73;;
3993;SDS011;2011;48.238;13.948;2024-03-23T14:51:58;3.10;;;1.80;;
3993;SDS011;2011;48.238;13.948;2024-03-23T14:54:25;3.53;;;1.50;;
3993;SDS011;2011;48.238;13.948;2024-03-23T14:56:51;2.83;;;1.57;;
3993;SDS011;2011;48.238;13.948;2024-03-23T14:59:20;3.03;;;1.50;;
3993;SDS011;2011;48.238;13.948;2024-03-23T15:01:46;6.20;;;1.93;;
3993;SDS011;2011;48.238;13.948;2024-03-23T15:04:13;4.00;;;1.57;;
3993;SDS011;2011;48.238;13.948;2024-03-23T15:06:39;3.13;;;1.87;;
3993;SDS011;2011;48.238;13.948;2024-03-23T15:09:07;4.03;;;2.07;;
3993;SDS011;2011;48.238;13.948;2024-03-23T15:11:36;4.00;;;1.90;;
3993;SDS011;2011;48.238;13.948;2024-03-23T15:14:03;6.60;;;1.90;;
3993;SDS011;2011;48.238;13.948;2024-03-23T15:16:30;4.80;;;2.00;;
3993;SDS011;2011;48.238;13.948;2024-03-23T15:18:57;3.00;;;1.70;;
3993;SDS011;2011;48.238;13.948;2024-03-23T15:21:23;4.20;;;1.73;;
3993;SDS011;2011;48.238;13.948;2024-03-23T15:23:50;27.13;;;2.70;;
3993;SDS011;2011;48.238;13.948;2024-03-23T15:26:16;6.60;;;2.23;;
3993;SDS011;2011;48.238;13.948;2024-03-23T15:28:47;6.93;;;1.67;;
3993;SDS011;2011;48.238;13.948;2024-03-23T15:31:33;3.10;;;1.57;;
3993;SDS011;2011;48.238;13.948;2024-03-23T15:34:00;3.07;;;1.50;;
3993;SDS011;2011;48.238;13.948;2024-03-23T15:36:26;4.17;;;1.70;;
3993;SDS011;2011;48.238;13.948;2024-03-23T15:38:53;4.17;;;2.00;;
3993;SDS011;2011;48.238;13.948;2024-03-23T15:41:20;4.80;;;1.90;;
3993;SDS011;2011;48.238;13.948;2024-03-23T15:43:48;4.03;;;1.77;;
3993;SDS011;2011;48.238;13.948;2024-03-23T15:46:14;4.00;;;1.80;;
3993;SDS011;2011;48.238;13.948;2024-03-23T15:48:45;4.37;;;1.73;;
3993;SDS011;2011;48.238;13.948;2024-03-23T15:51:12;4.40;;;2.17;;